sensor_id;sensor_type;location;lat;lon;timestamp;temperature;humidity
72646;DHT22;60687;53.876;10.674;2024-02-21T00:05:52;9.00;99.90
72646;DHT22;60687;53.876;10.674;2024-02-21T00:15:55;9.00;99.90
72646;DHT22;60687;53.876;10.674;2024-02-21T00:25:59;9.00;99.90
72646;DHT22;60687;53.876;10.674;2024-02-21T00:36:08;9.00;99.90
72646;DHT22;60687;53.876;10.674;2024-02-21T00:46:12;9.00;99.90
72646;DHT22;60687;53.876;10.674;2024-02-21T00:56:16;9.00;99.90
72646;DHT22;60687;53.876;10.674;2024-02-21T01:06:28;9.00;99.90
72646;DHT22;60687;53.876;10.674;2024-02-21T01:16:34;9.10;99.90
72646;DHT22;60687;53.876;10.674;2024-02-21T01:26:47;9.10;99.90
72646;DHT22;60687;53.876;10.674;2024-02-21T01:36:58;9.10;99.90
72646;DHT22;60687;53.876;10.674;2024-02-21T01:47:05;9.10;99.90
72646;DHT22;60687;53.876;10.674;2024-02-21T01:57:13;9.00;99.90
72646;DHT22;60687;53.876;10.674;2024-02-21T02:07:17;9.00;99.90
72646;DHT22;60687;53.876;10.674;2024-02-21T02:17:32;9.00;99.90
72646;DHT22;60687;53.876;10.674;2024-02-21T02:27:44;9.00;99.90
72646;DHT22;60687;53.876;10.674;2024-02-21T02:37:50;9.00;99.90
72646;DHT22;60687;53.876;10.674;2024-02-21T02:47:57;9.00;99.90
72646;DHT22;60687;53.876;10.674;2024-02-21T02:58:02;9.00;99.90
72646;DHT22;60687;53.876;10.674;2024-02-21T03:08:06;9.00;99.90
72646;DHT22;60687;53.876;10.674;2024-02-21T03:18:10;9.00;99.90
72646;DHT22;60687;53.876;10.674;2024-02-21T03:28:15;9.00;99.90
72646;DHT22;60687;53.876;10.674;2024-02-21T03:38:19;9.10;99.90
72646;DHT22;60687;53.876;10.674;2024-02-21T03:48:23;9.10;99.90
72646;DHT22;60687;53.876;10.674;2024-02-21T03:58:26;9.10;99.90
72646;DHT22;60687;53.876;10.674;2024-02-21T04:08:32;9.10;99.90
72646;DHT22;60687;53.876;10.674;2024-02-21T04:18:36;9.10;99.90
72646;DHT22;60687;53.876;10.674;2024-02-21T04:28:40;9.10;99.90
72646;DHT22;60687;53.876;10.674;2024-02-21T04:38:43;9.10;99.90
72646;DHT22;60687;53.876;10.674;2024-02-21T04:48:47;9.10;99.90
72646;DHT22;60687;53.876;10.674;2024-02-21T04:58:52;9.10;99.90
72646;DHT22;60687;53.876;10.674;2024-02-21T05:08:56;9.10;99.90
72646;DHT22;60687;53.876;10.674;2024-02-21T05:18:59;9.10;99.90
72646;DHT22;60687;53.876;10.674;2024-02-21T05:29:03;9.10;99.90
72646;DHT22;60687;53.876;10.674;2024-02-21T05:39:06;9.10;99.90
72646;DHT22;60687;53.876;10.674;2024-02-21T05:49:14;9.10;99.90
72646;DHT22;60687;53.876;10.674;2024-02-21T05:59:16;9.10;99.90
72646;DHT22;60687;53.876;10.674;2024-02-21T06:09:20;9.00;99.90
72646;DHT22;60687;53.876;10.674;2024-02-21T06:19:24;8.90;99.90
72646;DHT22;60687;53.876;10.674;2024-02-21T06:29:28;8.90;99.90
72646;DHT22;60687;53.876;10.674;2024-02-21T06:39:33;8.90;99.90
72646;DHT22;60687;53.876;10.674;2024-02-21T06:49:40;8.80;99.90
72646;DHT22;60687;53.876;10.674;2024-02-21T06:59:44;8.80;99.90
72646;DHT22;60687;53.876;10.674;2024-02-21T07:09:47;8.80;99.90
72646;DHT22;60687;53.876;10.674;2024-02-21T07:19:50;8.80;99.90
72646;DHT22;60687;53.876;10.674;2024-02-21T07:29:54;8.80;99.90
72646;DHT22;60687;53.876;10.674;2024-02-21T07:39:56;8.70;99.90
72646;DHT22;60687;53.876;10.674;2024-02-21T07:50:01;8.80;99.90
72646;DHT22;60687;53.876;10.674;2024-02-21T08:00:05;8.80;99.90
72646;DHT22;60687;53.876;10.674;2024-02-21T08:10:20;8.80;99.90
72646;DHT22;60687;53.876;10.674;2024-02-21T08:20:25;8.80;99.90
72646;DHT22;60687;53.876;10.674;2024-02-21T08:30:29;8.90;99.90
72646;DHT22;60687;53.876;10.674;2024-02-21T08:40:32;9.00;99.90
72646;DHT22;60687;53.876;10.674;2024-02-21T08:50:37;9.30;99.90
72646;DHT22;60687;53.876;10.674;2024-02-21T09:00:40;9.70;99.90
72646;DHT22;60687;53.876;10.674;2024-02-21T09:10:45;10.00;99.90
72646;DHT22;60687;53.876;10.674;2024-02-21T09:20:51;10.40;99.90
72646;DHT22;60687;53.876;10.674;2024-02-21T09:31:00;10.70;99.90
72646;DHT22;60687;53.876;10.674;2024-02-21T09:41:11;10.80;99.90
72646;DHT22;60687;53.876;10.674;2024-02-21T09:51:35;10.80;99.90
72646;DHT22;60687;53.876;10.674;2024-02-21T10:01:54;10.80;99.90
72646;DHT22;60687;53.876;10.674;2024-02-21T10:12:13;10.90;99.90
72646;DHT22;60687;53.876;10.674;2024-02-21T10:22:23;11.10;99.90
72646;DHT22;60687;53.876;10.674;2024-02-21T10:32:37;11.10;99.90
72646;DHT22;60687;53.876;10.674;2024-02-21T10:43:01;11.10;99.30
72646;DHT22;60687;53.876;10.674;2024-02-21T10:53:44;11.00;99.30
72646;DHT22;60687;53.876;10.674;2024-02-21T11:04:04;10.90;99.90
72646;DHT22;60687;53.876;10.674;2024-02-21T11:14:20;10.80;99.90
72646;DHT22;60687;53.876;10.674;2024-02-21T11:24:36;10.80;99.90
72646;DHT22;60687;53.876;10.674;2024-02-21T11:35:09;10.90;99.90
72646;DHT22;60687;53.876;10.674;2024-02-21T11:45:33;10.90;99.90
72646;DHT22;60687;53.876;10.674;2024-02-21T11:55:51;10.80;99.90
72646;DHT22;60687;53.876;10.674;2024-02-21T12:06:00;10.80;99.90
72646;DHT22;60687;53.876;10.674;2024-02-21T12:16:10;10.70;99.90
72646;DHT22;60687;53.876;10.674;2024-02-21T12:26:23;10.60;99.90
72646;DHT22;60687;53.876;10.674;2024-02-21T12:36:32;10.60;99.90
72646;DHT22;60687;53.876;10.674;2024-02-21T12:46:39;10.60;99.90
72646;DHT22;60687;53.876;10.674;2024-02-21T12:56:53;10.50;99.90
72646;DHT22;60687;53.876;10.674;2024-02-21T13:07:03;10.50;99.90
72646;DHT22;60687;53.876;10.674;2024-02-21T13:17:22;10.40;99.90
72646;DHT22;60687;53.876;10.674;2024-02-21T13:27:49;10.30;99.90
72646;DHT22;60687;53.876;10.674;2024-02-21T13:38:35;10.20;99.90
72646;DHT22;60687;53.876;10.674;2024-02-21T13:48:47;10.10;99.90
72646;DHT22;60687;53.876;10.674;2024-02-21T13:59:36;10.00;99.90
72646;DHT22;60687;53.876;10.674;2024-02-21T14:09:57;10.00;99.90
72646;DHT22;60687;53.876;10.674;2024-02-21T14:20:09;9.90;99.90
72646;DHT22;60687;53.876;10.674;2024-02-21T14:30:20;9.90;99.90
72646;DHT22;60687;53.876;10.674;2024-02-21T14:40:31;9.80;99.90
72646;DHT22;60687;53.876;10.674;2024-02-21T14:50:41;9.80;99.90
72646;DHT22;60687;53.876;10.674;2024-02-21T15:01:01;9.80;99.90
72646;DHT22;60687;53.876;10.674;2024-02-21T15:11:24;9.70;99.90
72646;DHT22;60687;53.876;10.674;2024-02-21T15:21:40;9.70;99.90
72646;DHT22;60687;53.876;10.674;2024-02-21T15:32:01;9.70;99.90
72646;DHT22;60687;53.876;10.674;2024-02-21T15:42:20;9.70;99.90
72646;DHT22;60687;53.876;10.674;2024-02-21T15:53:14;9.70;99.90
72646;DHT22;60687;53.876;10.674;2024-02-21T16:06:24;9.70;99.90
72646;DHT22;60687;53.876;10.674;2024-02-21T16:15:16;9.60;99.90
72646;DHT22;60687;53.876;10.674;2024-02-21T16:58:37;9.40;99.90
72646;DHT22;60687;53.876;10.674;2024-02-21T17:09:27;9.30;99.90
72646;DHT22;60687;53.876;10.674;2024-02-21T17:19:41;9.20;99.90
72646;DHT22;60687;53.876;10.674;2024-02-21T17:29:52;9.20;99.90
72646;DHT22;60687;53.876;10.674;2024-02-21T17:40:22;9.10;99.90
72646;DHT22;60687;53.876;10.674;2024-02-21T17:50:38;9.10;99.90
72646;DHT22;60687;53.876;10.674;2024-02-21T18:00:57;9.00;99.90
72646;DHT22;60687;53.876;10.674;2024-02-21T18:11:10;8.90;99.90
72646;DHT22;60687;53.876;10.674;2024-02-21T18:21:52;8.90;99.90
72646;DHT22;60687;53.876;10.674;2024-02-21T18:32:56;8.90;99.90
72646;DHT22;60687;53.876;10.674;2024-02-21T18:43:38;8.80;99.90
72646;DHT22;60687;53.876;10.674;2024-02-21T18:54:38;8.80;99.90
72646;DHT22;60687;53.876;10.674;2024-02-21T19:04:46;8.70;99.90
72646;DHT22;60687;53.876;10.674;2024-02-21T19:14:59;8.70;99.90
72646;DHT22;60687;53.876;10.674;2024-02-21T19:25:25;8.60;99.90
72646;DHT22;60687;53.876;10.674;2024-02-21T19:35:54;8.60;99.90
72646;DHT22;60687;53.876;10.674;2024-02-21T19:47:02;8.60;99.90
72646;DHT22;60687;53.876;10.674;2024-02-21T19:57:46;8.60;99.90
72646;DHT22;60687;53.876;10.674;2024-02-21T20:08:22;8.60;99.90
72646;DHT22;60687;53.876;10.674;2024-02-21T20:19:24;8.50;99.90
72646;DHT22;60687;53.876;10.674;2024-02-21T20:41:40;8.60;99.90
72646;DHT22;60687;53.876;10.674;2024-02-21T20:52:39;8.60;99.90
72646;DHT22;60687;53.876;10.674;2024-02-21T21:03:35;8.60;99.90
72646;DHT22;60687;53.876;10.674;2024-02-21T21:13:50;8.60;99.90
72646;DHT22;60687;53.876;10.674;2024-02-21T21:25:06;8.60;99.90
72646;DHT22;60687;53.876;10.674;2024-02-21T21:35:52;8.60;99.90
72646;DHT22;60687;53.876;10.674;2024-02-21T21:46:20;8.60;99.90
72646;DHT22;60687;53.876;10.674;2024-02-21T21:56:49;8.60;99.90
72646;DHT22;60687;53.876;10.674;2024-02-21T22:07:33;8.60;99.90
72646;DHT22;60687;53.876;10.674;2024-02-21T22:18:00;8.50;99.90
72646;DHT22;60687;53.876;10.674;2024-02-21T22:28:10;8.60;99.90
72646;DHT22;60687;53.876;10.674;2024-02-21T22:38:17;8.50;99.90
72646;DHT22;60687;53.876;10.674;2024-02-21T22:48:44;8.50;99.90
72646;DHT22;60687;53.876;10.674;2024-02-21T22:58:52;8.50;99.90
72646;DHT22;60687;53.876;10.674;2024-02-21T23:09:12;8.40;99.90
72646;DHT22;60687;53.876;10.674;2024-02-21T23:19:54;8.30;99.90
72646;DHT22;60687;53.876;10.674;2024-02-21T23:30:11;8.40;99.90
72646;DHT22;60687;53.876;10.674;2024-02-21T23:40:19;8.30;99.90
72646;DHT22;60687;53.876;10.674;2024-02-21T23:50:30;8.30;99.90
